Time;durP1;ratioP1;P1;durP2;ratioP2;P2;SDS_P1;SDS_P2;PMS_P1;PMS_P2;Temp;Humidity;BMP_temperature;BMP_pressure;BME280_temperature;BME280_humidity;BME280_pressure;Samples;Min_cycle;Max_cycle;Signal;HPM_P1;HPM_P2
2021/03/11 00:00:12;;;;;;;26.20;17.53;;;7.20;99.90;;;;;;5020715;28;20756;-76
2021/03/11 00:02:37;;;;;;;26.87;16.50;;;7.20;99.90;;;;;;5005479;28;20199;-76
2021/03/11 00:05:09;;;;;;;23.77;17.10;;;7.30;99.90;;;;;;5021653;28;20447;-76
2021/03/11 00:07:36;;;;;;;31.07;19.80;;;7.30;99.90;;;;;;5033981;28;20210;-76
2021/03/11 00:10:04;;;;;;;22.83;17.10;;;7.30;99.90;;;;;;5031159;28;20794;-76
2021/03/11 00:12:29;;;;;;;26.07;17.37;;;7.40;99.90;;;;;;5048184;28;20411;-76
2021/03/11 00:14:55;;;;;;;21.73;14.60;;;7.50;99.90;;;;;;5030935;28;20456;-76
2021/03/11 00:17:21;;;;;;;24.93;15.53;;;7.40;99.90;;;;;;5032463;28;20210;-76
2021/03/11 00:19:47;;;;;;;25.80;16.73;;;7.50;99.90;;;;;;5030252;28;20195;-76
2021/03/11 00:22:12;;;;;;;24.63;16.43;;;7.50;99.90;;;;;;5029152;28;20265;-76
2021/03/11 00:24:38;;;;;;;27.57;18.27;;;7.50;99.90;;;;;;5032230;28;20242;-77
2021/03/11 00:27:04;;;;;;;24.87;17.20;;;7.50;99.90;;;;;;5003939;28;20452;-77
2021/03/11 00:29:30;;;;;;;21.70;16.20;;;7.50;99.90;;;;;;5034295;28;20434;-76
2021/03/11 00:31:56;;;;;;;23.17;15.13;;;7.50;99.90;;;;;;5039037;28;20424;-77
2021/03/11 00:34:22;;;;;;;23.50;17.43;;;7.50;99.90;;;;;;5034534;28;20206;-77
2021/03/11 00:36:48;;;;;;;25.20;16.23;;;7.50;99.90;;;;;;5033622;28;20464;-76
2021/03/11 00:39:16;;;;;;;21.37;13.83;;;7.60;99.90;;;;;;5022016;28;20289;-76
2021/03/11 00:41:41;;;;;;;24.77;17.17;;;7.60;99.90;;;;;;4999078;28;20412;-76
2021/03/11 00:44:07;;;;;;;24.50;15.67;;;7.60;99.90;;;;;;5034060;28;20406;-76
2021/03/11 00:46:33;;;;;;;25.73;17.60;;;7.50;99.90;;;;;;5019002;28;20345;-77
2021/03/11 00:48:58;;;;;;;22.07;16.80;;;7.50;99.90;;;;;;5036139;28;20590;-76
2021/03/11 00:51:24;;;;;;;26.33;17.10;;;7.30;99.90;;;;;;5033086;28;20284;-76
2021/03/11 00:53:50;;;;;;;22.10;15.23;;;7.30;99.90;;;;;;4996126;28;20207;-77
2021/03/11 00:56:16;;;;;;;26.63;15.83;;;7.20;99.90;;;;;;5034134;28;20214;-76
2021/03/11 00:58:41;;;;;;;25.40;18.00;;;7.20;99.90;;;;;;5048230;28;20213;-76
2021/03/11 01:01:07;;;;;;;24.70;16.80;;;7.10;99.90;;;;;;5021501;28;20210;-76
2021/03/11 01:03:33;;;;;;;25.83;15.53;;;7.00;99.90;;;;;;5045240;28;20657;-76
2021/03/11 01:05:59;;;;;;;28.07;17.03;;;6.90;99.90;;;;;;5019303;28;20585;-76
2021/03/11 01:08:24;;;;;;;28.93;16.43;;;6.90;99.90;;;;;;5031850;28;20202;-76
2021/03/11 01:10:51;;;;;;;32.33;16.17;;;6.80;99.90;;;;;;5019682;28;20238;-77
2021/03/11 01:13:17;;;;;;;26.60;20.20;;;6.80;99.90;;;;;;5047231;28;20206;-77
2021/03/11 01:15:43;;;;;;;26.70;17.97;;;6.80;99.90;;;;;;5030247;28;20443;-77
2021/03/11 01:18:11;;;;;;;26.20;16.13;;;6.80;99.90;;;;;;5014208;28;20198;-77
2021/03/11 01:20:36;;;;;;;30.97;20.07;;;6.80;99.90;;;;;;5033970;28;20415;-77
2021/03/11 01:23:03;;;;;;;28.97;19.90;;;6.80;99.90;;;;;;5012431;28;21054;-77
2021/03/11 01:25:29;;;;;;;27.20;17.57;;;6.80;99.90;;;;;;5039309;28;20474;-77
2021/03/11 01:27:54;;;;;;;27.87;19.97;;;6.80;99.90;;;;;;5030961;28;20633;-77
2021/03/11 01:30:21;;;;;;;29.77;21.03;;;6.80;99.90;;;;;;5033887;28;20277;-77
2021/03/11 01:32:46;;;;;;;31.63;19.10;;;6.80;99.90;;;;;;5029353;28;20211;-77
2021/03/11 01:35:12;;;;;;;26.87;17.73;;;6.80;99.90;;;;;;5018201;28;20423;-77
2021/03/11 01:37:38;;;;;;;33.60;20.07;;;6.90;99.90;;;;;;5029505;28;20282;-77
2021/03/11 01:40:06;;;;;;;28.60;19.53;;;6.90;99.90;;;;;;4997584;28;20431;-77
2021/03/11 01:42:32;;;;;;;33.03;19.40;;;6.90;99.90;;;;;;5033360;28;20210;-77
2021/03/11 01:44:58;;;;;;;27.40;18.60;;;6.90;99.90;;;;;;5031049;28;20869;-77
2021/03/11 01:47:24;;;;;;;30.10;20.47;;;6.90;99.90;;;;;;5017231;28;20960;-76
2021/03/11 01:49:50;;;;;;;28.67;19.60;;;6.90;99.90;;;;;;5034800;28;20455;-77
2021/03/11 01:52:16;;;;;;;27.23;17.37;;;7.00;99.90;;;;;;4997784;28;20346;-77
2021/03/11 01:54:42;;;;;;;25.83;20.53;;;7.00;99.90;;;;;;5009372;28;20682;-77
2021/03/11 01:57:08;;;;;;;25.60;18.73;;;7.00;99.90;;;;;;5017291;28;20431;-77
2021/03/11 01:59:36;;;;;;;28.33;17.97;;;7.00;99.90;;;;;;5018732;28;20458;-77
2021/03/11 02:02:03;;;;;;;28.93;15.13;;;7.00;99.90;;;;;;5017534;28;20390;-77
2021/03/11 02:04:29;;;;;;;22.10;14.03;;;7.10;99.90;;;;;;5019340;28;21807;-77
2021/03/11 02:06:57;;;;;;;25.77;15.63;;;7.10;99.90;;;;;;5034784;28;20519;-76
2021/03/11 02:09:23;;;;;;;22.80;16.40;;;7.20;99.90;;;;;;5020955;28;20404;-77
2021/03/11 02:12:21;;;;;;;23.57;17.27;;;7.30;99.90;;;;;;5036457;28;20409;-77
2021/03/11 02:14:50;;;;;;;18.07;12.67;;;7.40;99.90;;;;;;5033899;28;20427;-78
2021/03/11 02:17:20;;;;;;;22.93;14.00;;;7.40;99.90;;;;;;5011879;28;20453;-77
2021/03/11 02:20:18;;;;;;;23.47;13.43;;;7.60;99.90;;;;;;5014693;28;20410;-76
2021/03/11 02:23:14;;;;;;;22.37;13.47;;;7.60;99.90;;;;;;5035377;28;20424;-76
2021/03/11 02:26:18;;;;;;;17.57;11.50;;;7.70;99.90;;;;;;5028881;28;20408;-77
2021/03/11 02:29:05;;;;;;;18.20;12.20;;;7.70;99.90;;;;;;5032874;28;20478;-76
2021/03/11 02:31:42;;;;;;;17.47;11.60;;;7.70;99.90;;;;;;5037214;28;20536;-76
2021/03/11 02:34:15;;;;;;;19.60;11.00;;;7.80;99.90;;;;;;5050977;28;20931;-76
2021/03/11 02:36:42;;;;;;;17.93;11.87;;;7.90;99.90;;;;;;5041126;28;20399;-77
2021/03/11 02:39:10;;;;;;;17.03;10.13;;;7.90;99.90;;;;;;5035629;28;20398;-76
2021/03/11 02:41:39;;;;;;;19.30;11.40;;;8.00;99.90;;;;;;5040611;28;20444;-77
2021/03/11 02:44:06;;;;;;;18.70;10.90;;;8.00;99.90;;;;;;5026488;28;20390;-76
2021/03/11 02:46:33;;;;;;;14.43;9.13;;;8.00;99.90;;;;;;5035631;28;20433;-76
2021/03/11 02:49:00;;;;;;;13.53;9.47;;;8.10;99.90;;;;;;5036508;28;20441;-76
2021/03/11 02:51:26;;;;;;;9.53;6.90;;;8.10;99.90;;;;;;5022860;28;20375;-77
2021/03/11 02:53:52;;;;;;;11.73;8.00;;;8.10;99.90;;;;;;5018728;28;20422;-76
2021/03/11 02:56:20;;;;;;;8.40;7.20;;;8.30;99.90;;;;;;5023638;28;20261;-77
2021/03/11 02:58:47;;;;;;;11.43;7.17;;;8.20;99.90;;;;;;5035931;28;20982;-76
2021/03/11 03:01:18;;;;;;;11.33;7.23;;;8.00;99.90;;;;;;5036858;28;20521;-76
2021/03/11 03:03:46;;;;;;;13.47;7.37;;;8.00;99.90;;;;;;5034394;28;20425;-76
2021/03/11 03:06:12;;;;;;;6.83;5.47;;;8.00;99.90;;;;;;5039802;28;20402;-76
2021/03/11 03:08:42;;;;;;;9.13;7.07;;;8.00;99.90;;;;;;5035681;28;20814;-76
2021/03/11 03:11:08;;;;;;;8.40;5.90;;;8.10;99.90;;;;;;5022511;28;20430;-77
2021/03/11 03:13:35;;;;;;;10.07;6.40;;;8.20;99.90;;;;;;5022789;28;20444;-76
2021/03/11 03:16:01;;;;;;;7.63;6.00;;;8.20;99.90;;;;;;5039520;28;20306;-77
2021/03/11 03:18:30;;;;;;;6.70;4.90;;;8.30;99.90;;;;;;5033828;28;20425;-77
2021/03/11 03:20:58;;;;;;;10.43;6.60;;;8.30;99.90;;;;;;5050980;28;20440;-77
2021/03/11 03:23:26;;;;;;;6.50;5.63;;;8.30;99.90;;;;;;4992536;28;20378;-76
2021/03/11 03:25:52;;;;;;;8.70;6.30;;;8.30;99.90;;;;;;5040705;28;21247;-77
2021/03/11 03:28:18;;;;;;;7.03;5.30;;;8.30;99.90;;;;;;5014724;28;20442;-77
2021/03/11 03:30:45;;;;;;;8.17;5.17;;;8.20;99.90;;;;;;5009283;28;20218;-77
2021/03/11 03:33:11;;;;;;;7.87;6.63;;;8.20;99.90;;;;;;5035713;28;20348;-77
2021/03/11 03:35:38;;;;;;;8.20;5.27;;;8.20;99.90;;;;;;5038877;28;20424;-77
2021/03/11 03:38:04;;;;;;;6.17;5.30;;;8.10;99.90;;;;;;5036733;28;20415;-77
2021/03/11 03:40:30;;;;;;;8.50;6.03;;;8.00;99.90;;;;;;5037857;28;20427;-77
2021/03/11 03:43:17;;;;;;;7.07;4.67;;;8.00;99.90;;;;;;5023156;28;21780;-77
2021/03/11 03:46:07;;;;;;;6.30;5.37;;;7.90;99.90;;;;;;5042039;28;20210;-77
2021/03/11 03:48:55;;;;;;;8.57;6.33;;;7.80;99.90;;;;;;5051591;28;20416;-76
2021/03/11 03:51:32;;;;;;;10.10;5.80;;;7.60;99.90;;;;;;5036474;28;20420;-76
2021/03/11 03:54:05;;;;;;;7.33;5.37;;;7.60;99.90;;;;;;5048630;28;20550;-77
2021/03/11 03:56:36;;;;;;;9.80;7.07;;;7.60;99.90;;;;;;5035259;28;20391;-76
2021/03/11 03:59:23;;;;;;;8.63;5.97;;;7.50;99.90;;;;;;5051808;28;20415;-76
2021/03/11 04:01:58;;;;;;;5.90;5.30;;;7.50;99.90;;;;;;5033699;28;20422;-76
2021/03/11 04:04:29;;;;;;;8.17;5.63;;;7.50;99.90;;;;;;5034087;28;20497;-77
2021/03/11 04:06:57;;;;;;;9.80;6.50;;;7.50;99.90;;;;;;5022570;28;20433;-77
2021/03/11 04:09:25;;;;;;;9.53;7.87;;;7.50;99.90;;;;;;5036511;28;20395;-77
2021/03/11 04:11:51;;;;;;;10.37;6.37;;;7.40;99.90;;;;;;5039444;28;20444;-77
2021/03/11 04:14:19;;;;;;;7.70;6.43;;;7.40;99.90;;;;;;5020628;28;20415;-77
2021/03/11 04:16:46;;;;;;;9.90;7.80;;;7.40;99.90;;;;;;5020767;28;20418;-77
2021/03/11 04:19:13;;;;;;;9.10;7.33;;;7.40;99.90;;;;;;5002647;28;20402;-77
2021/03/11 04:21:41;;;;;;;8.47;7.57;;;7.40;99.90;;;;;;5034813;28;20401;-77
2021/03/11 04:24:08;;;;;;;10.23;8.00;;;7.40;99.90;;;;;;5033590;28;20439;-76
2021/03/11 04:26:36;;;;;;;10.23;8.73;;;7.50;99.90;;;;;;5037211;28;20514;-77
2021/03/11 04:29:02;;;;;;;11.90;8.70;;;7.50;99.90;;;;;;5006356;28;20505;-77
2021/03/11 04:31:29;;;;;;;9.07;7.53;;;7.50;99.90;;;;;;5010140;28;21013;-77
2021/03/11 04:33:56;;;;;;;12.70;9.57;;;7.60;99.90;;;;;;5032742;28;20953;-77
2021/03/11 04:36:23;;;;;;;9.67;8.67;;;7.60;99.90;;;;;;5035359;28;20404;-77
2021/03/11 04:38:49;;;;;;;11.13;9.30;;;7.60;99.90;;;;;;5020757;28;20908;-77
2021/03/11 04:41:16;;;;;;;13.00;8.73;;;7.70;99.90;;;;;;5023035;28;20441;-77
2021/03/11 04:43:42;;;;;;;13.30;9.30;;;7.70;99.90;;;;;;5019372;28;20410;-78
2021/03/11 04:46:08;;;;;;;12.00;9.20;;;7.80;99.90;;;;;;5020131;28;20906;-77
2021/03/11 04:48:34;;;;;;;11.43;8.73;;;7.90;99.90;;;;;;5022904;28;20438;-77
2021/03/11 04:51:02;;;;;;;11.57;9.13;;;7.90;99.90;;;;;;5035648;28;20408;-78
2021/03/11 04:53:28;;;;;;;13.13;10.10;;;7.90;99.90;;;;;;5034922;28;20388;-77
2021/03/11 04:55:54;;;;;;;8.97;7.80;;;8.00;99.90;;;;;;5007236;28;20483;-77
2021/03/11 04:58:20;;;;;;;8.17;6.70;;;8.00;99.90;;;;;;5052654;28;20470;-77
2021/03/11 05:00:48;;;;;;;12.47;7.43;;;8.10;99.90;;;;;;5038008;28;20506;-76
2021/03/11 05:03:16;;;;;;;8.73;7.10;;;8.10;99.90;;;;;;5019119;28;20420;-76
2021/03/11 05:05:45;;;;;;;9.27;6.43;;;8.10;99.90;;;;;;5013762;28;20395;-76
2021/03/11 05:08:12;;;;;;;6.93;5.50;;;8.20;99.90;;;;;;5039258;28;20794;-76
2021/03/11 05:10:39;;;;;;;10.53;6.60;;;8.20;99.90;;;;;;5031848;28;20898;-76
2021/03/11 05:13:06;;;;;;;8.43;5.77;;;8.20;99.90;;;;;;5019049;28;20404;-75
2021/03/11 05:15:32;;;;;;;7.37;4.20;;;8.20;99.90;;;;;;5036201;28;20505;-75
2021/03/11 05:17:59;;;;;;;12.50;7.13;;;8.10;99.90;;;;;;5036856;28;20493;-75
2021/03/11 05:20:25;;;;;;;6.40;5.43;;;8.10;99.90;;;;;;5033693;28;20428;-75
2021/03/11 05:22:52;;;;;;;8.77;6.70;;;8.00;99.90;;;;;;5033512;28;20433;-76
2021/03/11 05:25:18;;;;;;;7.33;6.47;;;8.00;99.90;;;;;;5032435;28;20399;-75
2021/03/11 05:27:44;;;;;;;9.17;6.93;;;8.00;99.90;;;;;;5011642;28;20481;-75
2021/03/11 05:30:12;;;;;;;8.10;6.43;;;8.10;99.90;;;;;;5021632;28;20435;-75
2021/03/11 05:32:38;;;;;;;10.70;6.27;;;8.10;99.90;;;;;;5032621;28;20404;-75
2021/03/11 05:35:05;;;;;;;8.80;6.80;;;8.00;99.90;;;;;;5032211;28;20521;-76
2021/03/11 05:37:31;;;;;;;9.60;7.13;;;8.00;99.90;;;;;;5020481;28;20402;-75
2021/03/11 05:39:58;;;;;;;11.50;5.93;;;8.00;99.90;;;;;;5016643;28;20909;-75
2021/03/11 05:42:24;;;;;;;8.13;6.00;;;8.10;99.90;;;;;;5035504;28;20424;-75
2021/03/11 05:44:51;;;;;;;6.80;6.17;;;8.10;99.90;;;;;;5036666;28;20408;-76
2021/03/11 05:47:19;;;;;;;8.57;6.27;;;8.10;99.90;;;;;;5016239;28;20463;-76
2021/03/11 05:49:45;;;;;;;8.43;6.37;;;8.10;99.90;;;;;;5020671;28;20401;-76
2021/03/11 05:52:13;;;;;;;8.20;5.90;;;8.00;99.90;;;;;;5031097;28;20432;-76
2021/03/11 05:54:39;;;;;;;9.37;5.70;;;8.00;99.90;;;;;;5050072;28;20401;-75
2021/03/11 05:57:06;;;;;;;6.73;5.40;;;8.00;99.90;;;;;;5019589;28;20424;-75
2021/03/11 05:59:33;;;;;;;8.80;5.90;;;8.00;99.90;;;;;;5021742;28;20404;-76
2021/03/11 06:02:08;;;;;;;7.33;5.57;;;8.00;99.90;;;;;;5030295;28;20439;-76
2021/03/11 06:04:35;;;;;;;8.87;6.73;;;7.90;99.90;;;;;;5023284;28;20420;-75
2021/03/11 06:07:06;;;;;;;10.00;6.20;;;8.00;99.90;;;;;;5022534;28;20424;-75
2021/03/11 06:09:33;;;;;;;9.43;6.13;;;8.00;99.90;;;;;;5038720;28;20396;-75
2021/03/11 06:12:00;;;;;;;6.97;5.40;;;8.00;99.90;;;;;;5039280;28;20438;-74
2021/03/11 06:14:27;;;;;;;11.00;6.80;;;8.00;99.90;;;;;;5040970;28;20375;-75
2021/03/11 06:17:03;;;;;;;8.43;5.60;;;8.10;99.90;;;;;;5038819;28;20542;-75
2021/03/11 06:19:29;;;;;;;6.00;5.40;;;8.10;99.90;;;;;;5032670;28;21016;-76
2021/03/11 06:21:54;;;;;;;8.07;6.47;;;8.10;99.90;;;;;;5032218;28;20507;-76
2021/03/11 06:24:23;;;;;;;7.57;5.50;;;8.20;99.90;;;;;;5025052;28;20452;-76
2021/03/11 06:26:49;;;;;;;8.27;6.73;;;8.20;99.90;;;;;;5024636;28;20458;-76
2021/03/11 06:29:21;;;;;;;9.93;5.87;;;8.20;99.90;;;;;;5005990;28;20476;-75
2021/03/11 06:31:47;;;;;;;6.80;5.40;;;8.30;99.90;;;;;;5035826;28;20553;-76
2021/03/11 06:34:20;;;;;;;7.97;6.67;;;8.30;99.90;;;;;;5037196;28;20374;-76
2021/03/11 06:36:46;;;;;;;9.40;6.90;;;8.40;99.90;;;;;;5037797;28;20394;-76
2021/03/11 06:39:26;;;;;;;11.10;6.63;;;8.50;99.90;;;;;;5036707;28;20427;-76
2021/03/11 06:41:52;;;;;;;7.13;5.63;;;8.50;99.90;;;;;;5054430;28;20416;-77
2021/03/11 06:44:18;;;;;;;8.97;6.43;;;8.50;99.90;;;;;;5018306;28;20420;-76
2021/03/11 06:47:10;;;;;;;8.30;6.43;;;8.50;99.90;;;;;;5037150;28;20293;-75
2021/03/11 06:49:54;;;;;;;7.87;5.03;;;8.70;99.90;;;;;;5035151;28;20825;-75
2021/03/11 06:52:21;;;;;;;7.17;6.43;;;8.70;99.90;;;;;;5037063;28;20477;-75
2021/03/11 06:54:58;;;;;;;7.67;6.83;;;8.80;99.90;;;;;;5014145;28;20394;-75
2021/03/11 06:57:34;;;;;;;7.13;6.43;;;8.80;99.90;;;;;;5034971;28;20428;-76
2021/03/11 07:00:04;;;;;;;9.43;6.20;;;9.00;99.90;;;;;;5018498;28;20486;-76
2021/03/11 07:02:30;;;;;;;7.20;6.50;;;8.90;99.90;;;;;;5026998;28;20393;-76
2021/03/11 07:05:10;;;;;;;8.20;5.70;;;9.00;99.90;;;;;;5052405;28;20788;-76
2021/03/11 07:07:36;;;;;;;9.10;6.43;;;9.10;99.90;;;;;;5034185;28;20202;-76
2021/03/11 07:10:01;;;;;;;8.90;6.50;;;9.20;99.90;;;;;;5037294;28;20433;-77
2021/03/11 07:12:54;;;;;;;6.60;5.90;;;9.20;99.90;;;;;;5018071;28;20452;-76
2021/03/11 07:15:21;;;;;;;5.77;5.20;;;9.30;99.90;;;;;;5035573;28;22271;-77
2021/03/11 07:17:48;;;;;;;18.23;5.80;;;9.30;99.90;;;;;;5032364;28;20856;-76
2021/03/11 07:20:19;;;;;;;6.40;5.80;;;9.20;99.90;;;;;;5033930;28;20402;-76
2021/03/11 07:23:03;;;;;;;11.60;7.03;;;9.10;99.90;;;;;;5051313;28;20423;-76
2021/03/11 07:25:37;;;;;;;9.07;6.07;;;9.10;99.90;;;;;;5017486;28;20437;-75
2021/03/11 07:28:05;;;;;;;6.63;5.90;;;9.20;99.90;;;;;;5039826;28;20428;-76
2021/03/11 07:30:47;;;;;;;7.50;6.30;;;9.20;99.90;;;;;;5038459;28;21502;-76
2021/03/11 07:33:14;;;;;;;7.70;5.43;;;9.20;99.90;;;;;;5039023;28;20390;-76
2021/03/11 07:35:41;;;;;;;8.30;5.70;;;9.30;99.90;;;;;;5026066;28;20461;-76
2021/03/11 07:38:09;;;;;;;7.67;5.30;;;9.30;99.90;;;;;;5038737;28;20423;-75
2021/03/11 07:40:36;;;;;;;8.37;7.30;;;9.30;99.90;;;;;;5038740;28;21003;-77
2021/03/11 07:43:01;;;;;;;7.60;6.80;;;9.30;99.90;;;;;;5020212;28;20407;-75
2021/03/11 07:45:27;;;;;;;10.90;6.53;;;9.30;99.90;;;;;;5042352;28;20391;-75
2021/03/11 07:47:55;;;;;;;6.73;5.90;;;9.30;99.90;;;;;;5018803;28;20436;-75
2021/03/11 07:50:21;;;;;;;6.90;6.27;;;9.30;99.90;;;;;;5034689;28;20674;-76
2021/03/11 07:52:48;;;;;;;8.17;5.47;;;9.40;99.90;;;;;;5015207;28;20391;-76
2021/03/11 07:55:14;;;;;;;11.93;5.67;;;9.50;99.90;;;;;;5032394;28;20421;-76
2021/03/11 07:57:47;;;;;;;7.20;5.20;;;9.60;99.90;;;;;;5016302;28;20494;-75
2021/03/11 08:00:16;;;;;;;9.10;4.83;;;9.70;99.90;;;;;;5033295;28;20449;-76
2021/03/11 08:02:49;;;;;;;6.30;5.37;;;9.80;99.90;;;;;;5012911;28;20474;-76
2021/03/11 08:05:28;;;;;;;6.33;5.30;;;10.00;99.90;;;;;;5009793;28;20386;-76
2021/03/11 08:08:22;;;;;;;8.10;4.63;;;10.30;99.90;;;;;;5032761;28;20427;-76
2021/03/11 08:10:51;;;;;;;5.70;4.00;;;10.30;99.90;;;;;;5015807;28;20540;-76
2021/03/11 08:13:37;;;;;;;6.17;4.33;;;10.40;99.90;;;;;;5032182;28;20386;-76
2021/03/11 08:16:09;;;;;;;8.87;5.00;;;10.70;99.90;;;;;;5008613;28;20387;-76
2021/03/11 08:18:35;;;;;;;4.73;4.33;;;10.90;99.90;;;;;;5028764;28;20478;-76
2021/03/11 08:21:03;;;;;;;5.40;4.80;;;11.00;99.90;;;;;;5032377;28;20411;-76
2021/03/11 08:23:29;;;;;;;5.37;4.20;;;10.90;99.90;;;;;;5033699;28;20214;-76
2021/03/11 08:25:55;;;;;;;5.13;4.53;;;10.90;99.90;;;;;;5015969;28;20931;-75
2021/03/11 08:28:25;;;;;;;4.93;4.53;;;10.80;99.90;;;;;;5027560;28;20439;-75
2021/03/11 08:30:53;;;;;;;3.57;3.27;;;10.80;99.90;;;;;;5044877;28;20815;-76
2021/03/11 08:33:19;;;;;;;4.03;3.57;;;10.70;99.90;;;;;;5026675;28;20424;-76
2021/03/11 08:35:53;;;;;;;7.80;3.87;;;11.10;99.90;;;;;;5010336;28;20427;-76
2021/03/11 08:38:26;;;;;;;6.37;3.67;;;11.00;99.90;;;;;;5032086;28;20308;-76
2021/03/11 08:40:52;;;;;;;4.23;3.93;;;11.00;99.90;;;;;;5032402;28;20402;-76
2021/03/11 08:46:03;;;;;;;5.20;3.73;;;11.10;99.90;;;;;;5029907;28;22828;-76
2021/03/11 08:48:46;;;;;;;5.80;3.93;;;11.10;99.90;;;;;;5032887;28;20432;-76
2021/03/11 08:51:31;;;;;;;6.27;3.93;;;11.30;99.90;;;;;;5030129;28;20420;-76
2021/03/11 08:54:10;;;;;;;4.83;3.80;;;11.40;99.90;;;;;;5036345;28;20427;-76
2021/03/11 08:56:37;;;;;;;14.10;4.30;;;11.30;99.90;;;;;;5033385;28;20831;-76
2021/03/11 08:59:17;;;;;;;10.30;3.87;;;11.20;99.90;;;;;;5033459;28;21325;-76
2021/03/11 09:01:55;;;;;;;4.30;3.90;;;11.10;99.90;;;;;;5045306;28;20414;-76
2021/03/11 09:04:21;;;;;;;8.50;3.50;;;11.30;99.90;;;;;;5014817;28;20412;-76
2021/03/11 09:07:10;;;;;;;5.23;3.63;;;11.60;99.90;;;;;;5037660;28;20463;-77
2021/03/11 09:09:39;;;;;;;6.60;3.47;;;11.70;99.90;;;;;;5018740;28;20426;-76
2021/03/11 09:12:07;;;;;;;9.90;2.93;;;11.90;99.90;;;;;;5030288;28;20417;-76
2021/03/11 09:14:33;;;;;;;5.07;2.80;;;12.10;99.90;;;;;;5017556;28;20432;-76
2021/03/11 09:17:17;;;;;;;7.50;3.10;;;12.10;99.90;;;;;;5030457;28;20443;-76
2021/03/11 09:19:52;;;;;;;9.07;3.60;;;12.40;99.90;;;;;;5031662;28;20568;-77
2021/03/11 09:22:19;;;;;;;5.60;2.50;;;12.50;99.90;;;;;;5046155;28;20415;-78
2021/03/11 09:25:15;;;;;;;8.67;3.60;;;12.30;99.90;;;;;;5033418;28;20412;-77
2021/03/11 09:28:00;;;;;;;7.83;2.57;;;12.00;99.90;;;;;;5026177;28;20432;-77
2021/03/11 09:30:29;;;;;;;10.17;3.40;;;11.80;99.90;;;;;;5031029;28;20463;-76
2021/03/11 09:32:56;;;;;;;6.33;2.23;;;11.80;99.90;;;;;;5030892;28;20427;-76
2021/03/11 09:35:25;;;;;;;10.53;3.03;;;11.60;99.90;;;;;;5032718;28;20419;-76
2021/03/11 09:38:02;;;;;;;6.93;2.40;;;11.50;99.90;;;;;;5034493;28;20965;-76
2021/03/11 09:40:43;;;;;;;7.20;2.40;;;11.40;99.90;;;;;;5037321;28;20387;-76
2021/03/11 09:43:35;;;;;;;6.37;2.77;;;11.40;99.90;;;;;;5034868;28;20735;-76
2021/03/11 09:46:13;;;;;;;6.83;2.47;;;11.40;99.90;;;;;;5033867;28;20423;-76
2021/03/11 09:48:47;;;;;;;8.17;2.17;;;11.40;99.90;;;;;;5048596;28;20386;-77
2021/03/11 09:51:18;;;;;;;8.50;2.23;;;11.40;99.90;;;;;;5034269;28;20414;-76
2021/03/11 09:53:56;;;;;;;5.70;2.57;;;11.40;99.90;;;;;;5034367;28;20399;-76
2021/03/11 09:56:32;;;;;;;4.67;2.33;;;11.30;99.90;;;;;;5035789;28;20400;-77
2021/03/11 09:59:07;;;;;;;8.63;2.70;;;11.30;99.90;;;;;;5014609;28;20406;-77
2021/03/11 10:01:41;;;;;;;8.50;2.80;;;11.50;99.90;;;;;;5035271;28;20906;-77
2021/03/11 10:04:18;;;;;;;5.23;2.47;;;12.20;99.90;;;;;;5031986;28;20408;-77
2021/03/11 10:06:54;;;;;;;6.13;2.60;;;13.20;99.90;;;;;;5018285;28;20466;-77
2021/03/11 10:09:21;;;;;;;6.80;2.13;;;13.50;99.90;;;;;;5034617;28;20477;-77
2021/03/11 10:11:53;;;;;;;10.53;3.47;;;14.50;99.90;;;;;;5047913;28;20439;-76
2021/03/11 10:14:27;;;;;;;10.93;2.87;;;13.80;99.90;;;;;;5038215;28;20379;-78
2021/03/11 10:17:04;;;;;;;10.33;3.73;;;14.20;99.90;;;;;;5035973;28;20437;-77
2021/03/11 10:19:32;;;;;;;9.63;3.37;;;14.30;99.90;;;;;;5034491;28;20817;-76
2021/03/11 10:22:15;;;;;;;10.47;3.30;;;14.20;99.90;;;;;;5030889;28;20438;-77
2021/03/11 10:24:46;;;;;;;20.17;3.43;;;14.60;99.90;;;;;;5048693;28;20823;-77
2021/03/11 10:27:25;;;;;;;14.20;5.20;;;14.60;99.90;;;;;;5011869;28;20422;-77
2021/03/11 10:30:30;;;;;;;9.53;3.77;;;14.60;99.90;;;;;;5017628;28;20405;-77
2021/03/11 10:32:56;;;;;;;8.70;3.90;;;14.90;99.90;;;;;;5038820;28;20535;-77
2021/03/11 10:35:31;;;;;;;7.83;3.00;;;15.70;99.90;;;;;;5030320;28;20939;-77
2021/03/11 10:38:21;;;;;;;8.17;2.50;;;15.20;99.90;;;;;;5049536;28;20403;-78
2021/03/11 10:40:52;;;;;;;8.70;4.63;;;14.70;99.90;;;;;;5014608;28;20511;-78
2021/03/11 10:43:23;;;;;;;12.23;4.10;;;14.30;99.90;;;;;;5030473;28;20411;-77
2021/03/11 10:45:50;;;;;;;8.00;2.97;;;14.60;99.90;;;;;;5033554;28;20458;-77
2021/03/11 10:48:16;;;;;;;12.27;3.77;;;15.30;99.90;;;;;;5045583;28;20423;-77
2021/03/11 10:50:52;;;;;;;7.53;2.47;;;15.20;99.90;;;;;;5031298;28;20482;-76
2021/03/11 10:53:20;;;;;;;8.00;3.20;;;16.00;99.90;;;;;;5014067;28;20919;-77
2021/03/11 10:55:47;;;;;;;9.87;4.20;;;15.20;99.90;;;;;;5031806;28;20404;-78
2021/03/11 10:58:25;;;;;;;8.07;3.47;;;15.20;99.90;;;;;;5034026;28;20890;-77
2021/03/11 11:00:51;;;;;;;11.83;3.33;;;14.60;99.90;;;;;;5028220;28;20403;-76
2021/03/11 11:03:20;;;;;;;6.87;2.60;;;14.50;99.90;;;;;;5030301;28;20917;-77
2021/03/11 11:05:46;;;;;;;7.90;2.80;;;14.70;99.90;;;;;;5031820;28;20356;-78
2021/03/11 11:08:13;;;;;;;8.57;3.10;;;14.30;99.10;;;;;;5016007;28;20433;-76
2021/03/11 11:10:39;;;;;;;6.37;2.70;;;14.90;98.70;;;;;;5018672;28;20463;-77
2021/03/11 11:13:05;;;;;;;12.90;2.67;;;14.60;97.30;;;;;;5048852;28;21297;-78
2021/03/11 11:15:32;;;;;;;9.20;2.87;;;14.50;96.60;;;;;;5036423;28;20432;-77
2021/03/11 11:17:59;;;;;;;8.27;2.80;;;14.20;96.20;;;;;;5029988;28;20440;-77
2021/03/11 11:20:25;;;;;;;8.63;2.53;;;14.10;96.50;;;;;;5036080;28;22639;-77
2021/03/11 11:22:51;;;;;;;8.60;3.73;;;14.20;97.20;;;;;;5030601;28;22878;-77
2021/03/11 11:25:17;;;;;;;6.40;2.50;;;14.10;96.60;;;;;;5048232;28;20550;-77
2021/03/11 11:27:45;;;;;;;7.20;3.00;;;14.10;96.30;;;;;;5034755;28;20282;-77
2021/03/11 11:30:13;;;;;;;7.60;2.63;;;14.10;96.50;;;;;;5033699;28;20409;-77
2021/03/11 11:32:40;;;;;;;7.50;3.20;;;13.90;94.60;;;;;;5013333;28;21222;-83
2021/03/11 11:35:06;;;;;;;4.27;2.17;;;14.50;93.60;;;;;;5027751;28;20460;-82
2021/03/11 11:37:33;;;;;;;6.23;3.00;;;14.80;92.10;;;;;;5027003;28;20434;-81
2021/03/11 11:40:01;;;;;;;12.53;2.93;;;;;;;;;;5010668;28;20432;-81
2021/03/11 11:42:27;;;;;;;10.83;4.27;;;15.60;89.10;;;;;;5044362;28;20420;-82
2021/03/11 11:44:53;;;;;;;9.17;2.90;;;14.80;87.30;;;;;;5023539;28;20411;-81
2021/03/11 11:47:21;;;;;;;10.73;2.87;;;14.90;89.10;;;;;;5024779;28;20433;-80
2021/03/11 11:49:48;;;;;;;5.73;2.70;;;15.00;90.00;;;;;;5041611;28;20223;-81
2021/03/11 11:52:14;;;;;;;10.93;2.70;;;15.50;88.70;;;;;;5039025;28;20432;-81
2021/03/11 11:54:42;;;;;;;6.60;2.70;;;15.20;86.90;;;;;;5016334;28;20423;-81
2021/03/11 11:57:08;;;;;;;6.30;2.90;;;15.00;86.30;;;;;;5040872;28;20272;-81
2021/03/11 11:59:34;;;;;;;6.37;2.57;;;14.60;85.00;;;;;;5023180;28;20481;-81
2021/03/11 12:02:00;;;;;;;6.53;2.30;;;14.90;85.20;;;;;;5040818;28;20420;-80
2021/03/11 12:04:27;;;;;;;8.27;2.83;;;15.40;85.60;;;;;;5025891;28;20458;-81
2021/03/11 12:06:53;;;;;;;13.23;3.50;;;16.30;82.80;;;;;;5037424;28;20440;-81
2021/03/11 12:09:20;;;;;;;7.30;3.27;;;15.50;82.50;;;;;;5021499;28;20536;-81
2021/03/11 12:11:47;;;;;;;12.50;3.13;;;15.10;82.80;;;;;;5018760;28;20225;-81
2021/03/11 12:14:15;;;;;;;5.70;2.67;;;15.00;84.90;;;;;;5036385;28;20462;-81
2021/03/11 12:16:41;;;;;;;6.60;2.83;;;16.00;84.30;;;;;;5036886;28;20579;-81
2021/03/11 12:19:06;;;;;;;7.07;2.67;;;15.60;84.10;;;;;;5040154;28;20926;-81
2021/03/11 12:21:33;;;;;;;8.40;2.80;;;15.20;84.00;;;;;;5025271;28;20437;-81
2021/03/11 12:23:59;;;;;;;8.13;3.00;;;15.80;84.10;;;;;;5020648;28;20239;-81
2021/03/11 12:26:25;;;;;;;12.87;3.00;;;15.50;83.80;;;;;;5025430;28;20420;-81
2021/03/11 12:29:18;;;;;;;10.43;3.10;;;15.90;84.80;;;;;;5020298;28;20387;-81
2021/03/11 12:31:46;;;;;;;7.93;2.40;;;15.40;82.90;;;;;;5028770;28;20451;-81
2021/03/11 12:34:13;;;;;;;9.50;2.80;;;15.80;82.40;;;;;;5019673;28;20544;-81
2021/03/11 12:36:40;;;;;;;4.57;2.03;;;15.80;82.70;;;;;;5025810;28;20472;-81
2021/03/11 12:39:07;;;;;;;5.60;3.20;;;16.30;79.80;;;;;;5026643;28;20395;-80
2021/03/11 12:41:34;;;;;;;3.43;2.20;;;15.70;77.70;;;;;;5008379;28;20974;-80
2021/03/11 12:44:00;;;;;;;6.70;2.80;;;16.70;79.50;;;;;;5036154;28;20493;-81
2021/03/11 12:46:26;;;;;;;5.80;2.70;;;17.30;76.80;;;;;;5039739;28;20416;-81
2021/03/11 12:48:53;;;;;;;9.70;3.57;;;16.90;76.30;;;;;;5021451;28;20539;-82
2021/03/11 12:51:20;;;;;;;6.00;2.90;;;15.80;79.00;;;;;;5019187;28;20555;-80
2021/03/11 12:53:47;;;;;;;14.80;4.27;;;16.10;76.90;;;;;;5021186;28;20460;-80
2021/03/11 12:56:12;;;;;;;8.53;3.20;;;16.20;77.20;;;;;;5008144;28;20461;-81
2021/03/11 12:58:39;;;;;;;15.97;3.87;;;16.90;75.60;;;;;;5038330;28;20472;-80
2021/03/11 13:01:05;;;;;;;14.97;3.57;;;16.20;76.40;;;;;;5021940;28;20231;-81
2021/03/11 13:03:31;;;;;;;6.67;3.13;;;15.50;77.80;;;;;;5017485;28;20454;-81